createdAt,value
2018-02-02T00:00:16.483Z,7.57
2018-02-02T00:00:57.041Z,7.61
2018-02-02T00:01:37.562Z,7.71
2018-02-02T00:02:18.087Z,7.83
2018-02-02T00:02:58.643Z,7.93
2018-02-02T00:03:39.182Z,7.89
2018-02-02T00:04:19.772Z,7.89
2018-02-02T00:05:00.295Z,7.82
2018-02-02T00:05:40.828Z,7.87
2018-02-02T00:06:21.363Z,7.95
2018-02-02T00:07:01.919Z,7.87
2018-02-02T00:07:42.411Z,7.89
2018-02-02T00:08:22.991Z,8.05
2018-02-02T00:09:03.512Z,8.12
2018-02-02T00:09:44.041Z,7.97
2018-02-02T00:10:24.692Z,8
2018-02-02T00:11:05.336Z,8.1
2018-02-02T00:11:45.871Z,8.08
2018-02-02T00:12:26.414Z,7.9
2018-02-02T00:13:06.974Z,7.9
2018-02-02T00:13:47.506Z,8.01
2018-02-02T00:14:28.020Z,8.1
2018-02-02T00:15:08.605Z,8.11
2018-02-02T00:15:49.134Z,7.87
2018-02-02T00:16:29.660Z,7.9
2018-02-02T00:17:10.208Z,7.8
2018-02-02T00:17:50.760Z,7.74
2018-02-02T00:18:31.315Z,7.72
2018-02-02T00:19:11.825Z,7.79
2018-02-02T00:19:52.369Z,7.85
2018-02-02T00:20:32.876Z,7.72
2018-02-02T00:21:13.448Z,7.92
2018-02-02T00:21:54.029Z,7.82
2018-02-02T00:22:34.579Z,7.9
2018-02-02T00:23:15.082Z,7.75
2018-02-02T00:23:55.638Z,7.69
2018-02-02T00:24:36.153Z,7.69
2018-02-02T00:25:16.720Z,7.85
2018-02-02T00:25:57.261Z,7.92
2018-02-02T00:26:37.824Z,7.93
2018-02-02T00:27:18.431Z,8
2018-02-02T00:27:58.994Z,7.87
2018-02-02T00:28:39.470Z,7.95
2018-02-02T00:29:20.122Z,8.04
2018-02-02T00:30:00.646Z,7.95
2018-02-02T00:30:41.258Z,7.83
2018-02-02T00:31:21.771Z,7.93
2018-02-02T00:32:02.327Z,7.89
2018-02-02T00:32:43.026Z,7.86
2018-02-02T00:33:23.811Z,7.72
2018-02-02T00:34:04.444Z,7.8
2018-02-02T00:34:45.046Z,7.86
2018-02-02T00:35:26.102Z,8
2018-02-02T00:36:06.964Z,8.05
2018-02-02T00:36:48.111Z,8.1
2018-02-02T00:37:28.631Z,8.08
2018-02-02T00:38:08.986Z,8.04
2018-02-02T00:38:49.551Z,7.89
2018-02-02T00:39:30.226Z,7.86
2018-02-02T00:40:10.718Z,7.87
2018-02-02T00:40:51.257Z,7.86
2018-02-02T00:41:31.833Z,7.86
2018-02-02T00:42:12.381Z,7.93
2018-02-02T00:42:52.883Z,8.02
2018-02-02T00:43:33.471Z,8.05
2018-02-02T00:44:13.973Z,8.01
2018-02-02T00:44:54.450Z,8.01
2018-02-02T00:45:34.970Z,8
2018-02-02T00:46:15.571Z,7.95
2018-02-02T00:46:56.135Z,8
2018-02-02T00:47:36.599Z,8.01
2018-02-02T00:48:17.203Z,8.07
2018-02-02T00:48:57.728Z,8.15
2018-02-02T00:49:38.279Z,8
2018-02-02T00:50:18.793Z,8.05
2018-02-02T00:50:59.385Z,8.1
2018-02-02T00:51:39.905Z,8.12
2018-02-02T00:52:20.416Z,8.07
2018-02-02T00:53:00.938Z,7.98
2018-02-02T00:53:41.468Z,7.9
2018-02-02T00:54:21.971Z,8.07
2018-02-02T00:55:02.495Z,8.08
2018-02-02T00:55:43.040Z,8.02
2018-02-02T00:56:23.575Z,8.16
2018-02-02T00:57:04.113Z,8.08
2018-02-02T00:57:44.640Z,8.05
2018-02-02T00:58:25.176Z,8.07
2018-02-02T00:59:05.736Z,8.11
2018-02-02T00:59:46.254Z,8.1
2018-02-02T01:00:26.820Z,8.2
2018-02-02T01:01:07.344Z,8.33
2018-02-02T01:01:47.845Z,8.22
2018-02-02T01:02:28.397Z,8.4
2018-02-02T01:03:08.926Z,8.4
2018-02-02T01:03:49.436Z,8.29
2018-02-02T01:04:29.922Z,8.4
2018-02-02T01:05:10.492Z,8.38
2018-02-02T01:05:51.024Z,8.41
2018-02-02T01:06:31.551Z,8.43
2018-02-02T01:07:12.025Z,8.44
2018-02-02T01:07:52.521Z,8.37
2018-02-02T01:08:33.054Z,8.44
2018-02-02T01:09:13.615Z,8.16
2018-02-02T01:09:54.157Z,7.97
2018-02-02T01:10:34.709Z,8
2018-02-02T01:11:15.292Z,8.11
2018-02-02T01:11:55.795Z,8.19
2018-02-02T01:12:36.288Z,8.26
2018-02-02T01:13:16.844Z,8.25
2018-02-02T01:13:57.370Z,8.23
2018-02-02T01:14:37.998Z,8.33
2018-02-02T01:15:18.475Z,8.37
2018-02-02T01:15:59.005Z,8.33
2018-02-02T01:16:39.523Z,8.44
2018-02-02T01:17:20.070Z,8.43
2018-02-02T01:18:00.610Z,8.4
2018-02-02T01:18:41.168Z,8.47
2018-02-02T01:19:21.742Z,8.4
2018-02-02T01:20:02.233Z,8.4
2018-02-02T01:20:42.778Z,8.44
2018-02-02T01:21:23.283Z,8.37
2018-02-02T01:22:03.902Z,8.22
2018-02-02T01:22:44.426Z,8.23
2018-02-02T01:23:24.934Z,8.15
2018-02-02T01:24:05.531Z,8.19
2018-02-02T01:24:45.980Z,8.19
2018-02-02T01:25:26.579Z,8.23
2018-02-02T01:26:07.075Z,8.08
2018-02-02T01:26:47.602Z,8.11
2018-02-02T01:27:28.140Z,8.04
2018-02-02T01:28:08.691Z,8.01
2018-02-02T01:28:49.180Z,8.04
2018-02-02T01:29:29.704Z,8
2018-02-02T01:30:10.287Z,7.89
2018-02-02T01:30:50.811Z,7.85
2018-02-02T01:31:31.335Z,7.95
2018-02-02T01:32:11.916Z,8.11
2018-02-02T01:32:52.452Z,8.07
2018-02-02T01:33:32.990Z,8.02
2018-02-02T01:34:13.517Z,7.9
2018-02-02T01:34:54.065Z,8.1
2018-02-02T01:35:34.576Z,8.19
2018-02-02T01:36:15.098Z,8.15
2018-02-02T01:36:55.604Z,8.11
2018-02-02T01:37:36.127Z,8.07
2018-02-02T01:38:16.664Z,8.15
2018-02-02T01:38:57.256Z,8.11
2018-02-02T01:39:37.778Z,8.08
2018-02-02T01:40:18.307Z,8.11
2018-02-02T01:40:58.862Z,8.08
2018-02-02T01:41:39.403Z,8.2
2018-02-02T01:42:19.965Z,8.19
2018-02-02T01:43:00.627Z,8.23
2018-02-02T01:43:41.073Z,8.23
2018-02-02T01:44:21.624Z,8.12
2018-02-02T01:45:02.129Z,8.12
2018-02-02T01:45:42.634Z,7.98
2018-02-02T01:46:23.299Z,7.93
2018-02-02T01:47:03.818Z,8.05
2018-02-02T01:47:44.354Z,8.08
2018-02-02T01:48:24.961Z,8.1
2018-02-02T01:49:05.398Z,8.07
2018-02-02T01:49:45.917Z,8.07
2018-02-02T01:50:26.475Z,8.1
2018-02-02T01:51:07.026Z,8.12
2018-02-02T01:51:47.580Z,8.2
2018-02-02T01:52:28.132Z,8.05
2018-02-02T01:53:08.618Z,8.11
2018-02-02T01:53:49.136Z,8.15
2018-02-02T01:54:29.681Z,8.19
2018-02-02T01:55:10.226Z,8.16
2018-02-02T01:55:50.737Z,7.98
2018-02-02T01:56:31.293Z,8.05
2018-02-02T01:57:11.802Z,7.93
2018-02-02T01:57:52.303Z,7.95
2018-02-02T01:58:32.877Z,8.04
2018-02-02T01:59:13.342Z,8.1
2018-02-02T01:59:53.896Z,8.08
2018-02-02T02:00:34.398Z,8.1
2018-02-02T02:01:14.937Z,8.05
2018-02-02T02:01:55.459Z,7.93
2018-02-02T02:02:36.048Z,8
2018-02-02T02:03:16.554Z,8.1
2018-02-02T02:03:57.076Z,8.07
2018-02-02T02:04:37.636Z,8.2
2018-02-02T02:05:18.127Z,8.05
2018-02-02T02:05:58.684Z,8.08
2018-02-02T02:06:40.820Z,8.1
2018-02-02T02:07:21.372Z,8.18
2018-02-02T02:08:01.914Z,8.1
2018-02-02T02:08:42.558Z,8.1
2018-02-02T02:09:23.082Z,8.1
2018-02-02T02:10:03.598Z,8.07
2018-02-02T02:10:44.125Z,8.15
2018-02-02T02:11:24.711Z,8.11
2018-02-02T02:12:05.258Z,8.12
2018-02-02T02:12:45.800Z,8.16
2018-02-02T02:13:26.325Z,8.08
2018-02-02T02:14:06.853Z,8.2
2018-02-02T02:14:47.381Z,8.15
2018-02-02T02:15:27.970Z,7.9
2018-02-02T02:16:08.552Z,7.92
2018-02-02T02:16:49.092Z,7.85
2018-02-02T02:17:29.615Z,7.97
2018-02-02T02:18:10.169Z,8.07
2018-02-02T02:18:50.710Z,8
2018-02-02T02:19:31.295Z,8.01
2018-02-02T02:20:11.887Z,8.08
2018-02-02T02:20:52.406Z,7.97
2018-02-02T02:21:32.936Z,7.89
2018-02-02T02:22:13.469Z,7.95
2018-02-02T02:22:53.984Z,8.1
2018-02-02T02:23:34.572Z,8.07
2018-02-02T02:24:15.104Z,8.1
2018-02-02T02:24:55.633Z,8.07
2018-02-02T02:25:36.203Z,8.01
2018-02-02T02:26:16.753Z,7.83
2018-02-02T02:26:57.291Z,8.04
2018-02-02T02:27:37.790Z,8
2018-02-02T02:28:18.358Z,7.89
2018-02-02T02:28:58.928Z,7.77
2018-02-02T02:29:39.448Z,7.89
2018-02-02T02:30:19.964Z,7.82
2018-02-02T02:31:00.537Z,7.87
2018-02-02T02:31:41.035Z,7.86
2018-02-02T02:32:21.656Z,7.74
2018-02-02T02:33:02.191Z,7.53
2018-02-02T02:33:42.791Z,7.55
2018-02-02T02:34:23.321Z,7.77
2018-02-02T02:35:03.882Z,7.64
2018-02-02T02:35:44.428Z,7.72
2018-02-02T02:36:24.964Z,7.75
2018-02-02T02:37:05.452Z,7.77
2018-02-02T02:37:46.027Z,7.92
2018-02-02T02:38:26.558Z,7.92
2018-02-02T02:39:07.141Z,7.9
2018-02-02T02:39:47.697Z,7.85
2018-02-02T02:40:28.232Z,7.93
2018-02-02T02:41:08.765Z,8.01
2018-02-02T02:41:49.250Z,7.98
2018-02-02T02:42:29.866Z,8.08
2018-02-02T02:43:10.382Z,8.05
2018-02-02T02:43:50.889Z,8.07
2018-02-02T02:44:31.448Z,8.02
2018-02-02T02:45:12.111Z,7.89
2018-02-02T02:45:52.547Z,7.86
2018-02-02T02:46:33.085Z,7.71
2018-02-02T02:47:13.624Z,7.68
2018-02-02T02:47:54.181Z,7.63
2018-02-02T02:48:34.747Z,7.49
2018-02-02T02:49:15.287Z,7.48
2018-02-02T02:49:55.813Z,7.5
2018-02-02T02:50:36.361Z,7.42
2018-02-02T02:51:16.947Z,7.37
2018-02-02T02:51:57.550Z,7.49
2018-02-02T02:52:38.122Z,7.46
2018-02-02T02:53:18.671Z,7.42
2018-02-02T02:53:59.167Z,7.43
2018-02-02T02:54:39.709Z,7.42
2018-02-02T02:55:20.276Z,7.4
2018-02-02T02:56:00.807Z,7.6
2018-02-02T02:56:41.338Z,7.53
2018-02-02T02:57:21.857Z,7.42
2018-02-02T02:58:02.418Z,7.25
2018-02-02T02:58:42.941Z,7.15
2018-02-02T02:59:23.532Z,7.16
2018-02-02T03:00:04.068Z,7.24
2018-02-02T03:00:44.653Z,7.17
2018-02-02T03:01:25.219Z,7.12
2018-02-02T03:02:05.731Z,7.06
2018-02-02T03:02:46.291Z,7.06
2018-02-02T03:03:26.788Z,7.2
2018-02-02T03:04:07.313Z,7.34
2018-02-02T03:04:47.885Z,7.4
2018-02-02T03:05:28.452Z,7.46
2018-02-02T03:06:08.984Z,7.48
2018-02-02T03:06:49.521Z,7.48
2018-02-02T03:07:30.082Z,7.53
2018-02-02T03:08:10.626Z,7.55
2018-02-02T03:08:51.164Z,7.48
2018-02-02T03:09:31.696Z,7.34
2018-02-02T03:10:12.245Z,7.31
2018-02-02T03:10:52.757Z,7.4
2018-02-02T03:11:33.308Z,7.53
2018-02-02T03:12:13.836Z,7.55
2018-02-02T03:12:54.426Z,7.61
2018-02-02T03:13:34.989Z,7.64
2018-02-02T03:14:15.465Z,7.52
2018-02-02T03:14:56.045Z,7.55
2018-02-02T03:15:36.542Z,7.52
2018-02-02T03:16:17.096Z,7.55
2018-02-02T03:16:57.563Z,7.55
2018-02-02T03:17:38.147Z,7.43
2018-02-02T03:18:18.700Z,7.4
2018-02-02T03:18:59.234Z,7.42
2018-02-02T03:19:39.737Z,7.31
2018-02-02T03:20:20.291Z,7.4
2018-02-02T03:21:00.889Z,7.37
2018-02-02T03:21:41.428Z,7.32
2018-02-02T03:22:21.909Z,7.4
2018-02-02T03:23:02.516Z,7.43
2018-02-02T03:23:43.072Z,7.48
2018-02-02T03:24:23.610Z,7.42
2018-02-02T03:25:04.170Z,7.24
2018-02-02T03:25:44.736Z,7.12
2018-02-02T03:26:25.267Z,6.92
2018-02-02T03:27:05.844Z,6.95
2018-02-02T03:27:46.346Z,7.02
2018-02-02T03:28:26.845Z,6.95
2018-02-02T03:29:07.412Z,7.12
2018-02-02T03:29:47.907Z,7.12
2018-02-02T03:30:28.512Z,6.99
2018-02-02T03:31:09.071Z,7.12
2018-02-02T03:31:49.627Z,7.05
2018-02-02T03:32:30.198Z,7.07
2018-02-02T03:33:10.705Z,7.07
2018-02-02T03:33:51.248Z,6.97
2018-02-02T03:34:31.790Z,7.02
2018-02-02T03:35:12.323Z,6.81
2018-02-02T03:35:52.886Z,6.89
2018-02-02T03:36:33.469Z,6.89
2018-02-02T03:37:13.988Z,6.91
2018-02-02T03:37:54.574Z,6.91
2018-02-02T03:38:35.122Z,6.94
2018-02-02T03:39:15.631Z,7.05
2018-02-02T03:39:56.203Z,6.73
2018-02-02T03:40:36.753Z,6.81
2018-02-02T03:41:17.296Z,6.99
2018-02-02T03:41:57.782Z,7.05
2018-02-02T03:42:38.327Z,7.15
2018-02-02T03:43:18.845Z,6.99
2018-02-02T03:43:59.477Z,6.98
2018-02-02T03:44:39.928Z,6.99
2018-02-02T03:45:20.503Z,6.76
2018-02-02T03:46:01.080Z,6.87
2018-02-02T03:46:41.593Z,6.81
2018-02-02T03:47:22.168Z,6.8
2018-02-02T03:48:02.721Z,6.84
2018-02-02T03:48:43.196Z,6.84
2018-02-02T03:49:23.745Z,6.81
2018-02-02T03:50:04.294Z,6.79
2018-02-02T03:50:44.858Z,6.59
2018-02-02T03:51:25.378Z,6.69
2018-02-02T03:52:05.877Z,6.73
2018-02-02T03:52:46.452Z,6.67
2018-02-02T03:53:27.010Z,6.84
2018-02-02T03:54:07.541Z,6.69
2018-02-02T03:54:48.085Z,6.76
2018-02-02T03:55:28.652Z,6.79
2018-02-02T03:56:09.230Z,6.79
2018-02-02T03:56:49.766Z,6.73
2018-02-02T03:57:30.387Z,6.74
2018-02-02T03:58:12.554Z,6.79
2018-02-02T03:58:53.119Z,6.77
2018-02-02T03:59:33.692Z,6.73
2018-02-02T04:00:14.221Z,6.64
2018-02-02T04:00:54.793Z,6.52
2018-02-02T04:01:35.338Z,6.48
2018-02-02T04:02:15.927Z,6.58
2018-02-02T04:02:56.450Z,6.54
2018-02-02T04:03:36.945Z,6.4
2018-02-02T04:04:17.499Z,6.58
2018-02-02T04:04:58.084Z,6.56
2018-02-02T04:05:38.631Z,6.7
2018-02-02T04:06:19.159Z,6.79
2018-02-02T04:06:59.673Z,6.8
2018-02-02T04:07:40.169Z,6.85
2018-02-02T04:08:20.785Z,6.89
2018-02-02T04:09:01.343Z,6.95
2018-02-02T04:09:41.826Z,6.98
2018-02-02T04:10:22.385Z,6.85
2018-02-02T04:11:02.903Z,6.73
2018-02-02T04:11:43.417Z,6.79
2018-02-02T04:12:23.969Z,6.85
2018-02-02T04:13:04.496Z,6.88
2018-02-02T04:13:45.009Z,6.91
2018-02-02T04:14:25.523Z,6.74
2018-02-02T04:15:06.126Z,6.85
2018-02-02T04:15:46.648Z,6.88
2018-02-02T04:16:27.150Z,6.84
2018-02-02T04:17:07.687Z,6.79
2018-02-02T04:17:48.225Z,6.94
2018-02-02T04:18:28.804Z,6.84
2018-02-02T04:19:09.308Z,6.81
2018-02-02T04:19:49.827Z,6.87
2018-02-02T04:20:30.370Z,6.87
2018-02-02T04:21:10.933Z,6.99
2018-02-02T04:21:51.527Z,6.89
2018-02-02T04:22:32.133Z,7.07
2018-02-02T04:23:12.571Z,7.09
2018-02-02T04:23:53.124Z,7.03
2018-02-02T04:24:33.770Z,7.07
2018-02-02T04:25:14.233Z,7.07
2018-02-02T04:25:54.762Z,6.92
2018-02-02T04:26:35.289Z,7.09
2018-02-02T04:27:15.848Z,7.05
2018-02-02T04:27:56.383Z,7.16
2018-02-02T04:28:36.966Z,7.16
2018-02-02T04:29:17.462Z,7.15
2018-02-02T04:29:57.961Z,6.95
2018-02-02T04:30:38.512Z,6.91
2018-02-02T04:31:19.032Z,6.99
2018-02-02T04:31:59.545Z,7.07
2018-02-02T04:32:40.122Z,7.16
2018-02-02T04:33:20.670Z,7.21
2018-02-02T04:34:01.232Z,7.31
2018-02-02T04:34:41.705Z,7.45
2018-02-02T04:35:22.302Z,7.37
2018-02-02T04:36:02.818Z,7.27
2018-02-02T04:36:43.343Z,7.34
2018-02-02T04:37:23.943Z,7.4
2018-02-02T04:38:04.458Z,7.31
2018-02-02T04:38:44.988Z,7.45
2018-02-02T04:39:25.521Z,7.4
2018-02-02T04:40:06.584Z,7.37
2018-02-02T04:40:47.100Z,7.43
2018-02-02T04:41:27.625Z,7.37
2018-02-02T04:42:08.215Z,7.28
2018-02-02T04:42:48.746Z,7.35
2018-02-02T04:43:29.252Z,7.17
2018-02-02T04:44:09.753Z,7.17
2018-02-02T04:44:50.423Z,7.12
2018-02-02T04:45:31.015Z,7.06
2018-02-02T04:46:11.581Z,6.98
2018-02-02T04:46:52.098Z,6.84
2018-02-02T04:47:32.672Z,6.64
2018-02-02T04:48:13.169Z,6.84
2018-02-02T04:48:53.877Z,6.87
2018-02-02T04:49:34.464Z,7.03
2018-02-02T04:50:15.105Z,6.77
2018-02-02T04:50:55.656Z,6.7
2018-02-02T04:51:36.182Z,6.76
2018-02-02T04:52:16.704Z,6.85
2018-02-02T04:52:57.254Z,6.8
2018-02-02T04:53:37.848Z,6.97
2018-02-02T04:54:18.493Z,6.88
2018-02-02T04:54:59.201Z,6.8
2018-02-02T04:55:39.716Z,6.85
2018-02-02T04:56:20.247Z,6.92
2018-02-02T04:57:00.792Z,6.74
2018-02-02T04:57:41.335Z,6.8
2018-02-02T04:58:21.857Z,6.85
2018-02-02T04:59:02.379Z,6.62
2018-02-02T04:59:42.995Z,6.77
2018-02-02T05:00:23.530Z,6.84
2018-02-02T05:01:04.062Z,6.89
2018-02-02T05:01:44.594Z,6.7
2018-02-02T05:02:25.187Z,6.51
2018-02-02T05:03:05.674Z,6.62
2018-02-02T05:03:46.221Z,6.69
2018-02-02T05:04:26.754Z,6.64
2018-02-02T05:05:07.291Z,6.67
2018-02-02T05:05:47.774Z,6.71
2018-02-02T05:06:28.413Z,6.61
2018-02-02T05:07:08.881Z,6.74
2018-02-02T05:07:49.392Z,6.81
2018-02-02T05:08:29.926Z,6.77
2018-02-02T05:09:10.483Z,6.81
2018-02-02T05:09:51.064Z,6.95
2018-02-02T05:10:31.643Z,7.03
2018-02-02T05:11:12.207Z,6.89
2018-02-02T05:11:52.718Z,7.12
2018-02-02T05:12:33.225Z,7.09
2018-02-02T05:13:13.785Z,7.12
2018-02-02T05:13:54.301Z,7.17
2018-02-02T05:14:34.862Z,7.12
2018-02-02T05:15:15.391Z,7.03
2018-02-02T05:15:55.936Z,7.03
2018-02-02T05:16:36.498Z,6.87
2018-02-02T05:17:16.946Z,6.79
2018-02-02T05:17:57.556Z,6.73
2018-02-02T05:18:38.007Z,6.85
2018-02-02T05:19:18.568Z,6.85
2018-02-02T05:19:59.159Z,7.03
2018-02-02T05:20:39.683Z,6.95
2018-02-02T05:21:20.209Z,6.92
2018-02-02T05:22:00.836Z,6.8
2018-02-02T05:22:41.445Z,6.76
2018-02-02T05:23:21.981Z,6.64
2018-02-02T05:24:02.509Z,6.66
2018-02-02T05:24:43.047Z,6.56
2018-02-02T05:25:23.526Z,6.58
2018-02-02T05:26:04.058Z,6.61
2018-02-02T05:26:44.602Z,6.54
2018-02-02T05:27:25.209Z,6.62
2018-02-02T05:28:05.698Z,6.55
2018-02-02T05:28:46.230Z,6.74
2018-02-02T05:29:26.758Z,6.77
2018-02-02T05:30:07.353Z,6.64
2018-02-02T05:30:47.839Z,6.67
2018-02-02T05:31:28.436Z,6.79
2018-02-02T05:32:08.980Z,6.7
2018-02-02T05:32:49.491Z,6.51
2018-02-02T05:33:30.082Z,6.37
2018-02-02T05:34:10.571Z,6.4
2018-02-02T05:34:51.129Z,6.48
2018-02-02T05:35:31.766Z,6.55
2018-02-02T05:36:12.232Z,6.58
2018-02-02T05:36:52.797Z,6.62
2018-02-02T05:37:33.335Z,6.64
2018-02-02T05:38:13.872Z,6.56
2018-02-02T05:38:54.419Z,6.59
2018-02-02T05:39:35.104Z,6.64
2018-02-02T05:40:15.601Z,6.76
2018-02-02T05:40:56.137Z,6.76
2018-02-02T05:41:36.683Z,6.8
2018-02-02T05:42:17.194Z,6.87
2018-02-02T05:42:57.822Z,6.87
2018-02-02T05:43:38.390Z,6.95
2018-02-02T05:44:18.820Z,6.91
2018-02-02T05:44:59.367Z,6.97
2018-02-02T05:45:39.897Z,6.84
2018-02-02T05:46:20.446Z,7.03
2018-02-02T05:47:00.916Z,6.87
2018-02-02T05:47:41.486Z,6.88
2018-02-02T05:48:21.980Z,6.87
2018-02-02T05:49:02.516Z,6.98
2018-02-02T05:49:43.033Z,6.88
2018-02-02T05:50:23.572Z,6.69
2018-02-02T05:51:04.126Z,6.64
2018-02-02T05:51:44.711Z,6.81
2018-02-02T05:52:25.247Z,6.89
2018-02-02T05:53:05.787Z,6.88
2018-02-02T05:53:46.354Z,6.84
2018-02-02T05:54:26.850Z,6.71
2018-02-02T05:55:07.432Z,6.79
2018-02-02T05:55:47.908Z,6.73
2018-02-02T05:56:28.468Z,6.77
2018-02-02T05:57:09.053Z,6.76
2018-02-02T05:57:49.562Z,6.92
2018-02-02T05:58:30.182Z,6.81
2018-02-02T05:59:10.759Z,6.89
2018-02-02T05:59:51.305Z,6.89
2018-02-02T06:00:31.836Z,6.87
2018-02-02T06:01:12.439Z,6.85
2018-02-02T06:01:53.018Z,6.79
2018-02-02T06:02:33.527Z,6.87
2018-02-02T06:03:14.037Z,6.92
2018-02-02T06:03:54.550Z,6.87
2018-02-02T06:04:35.092Z,6.85
2018-02-02T06:05:15.693Z,6.77
2018-02-02T06:05:56.750Z,6.79
2018-02-02T06:06:37.125Z,6.87
2018-02-02T06:07:17.870Z,6.76
2018-02-02T06:08:01.095Z,6.66
2018-02-02T06:08:41.614Z,6.62
2018-02-02T06:09:22.686Z,6.56
2018-02-02T06:10:03.322Z,6.54
2018-02-02T06:10:43.810Z,6.62
2018-02-02T06:11:24.377Z,6.64
2018-02-02T06:12:04.868Z,6.52
2018-02-02T06:12:45.426Z,6.49
2018-02-02T06:13:26.211Z,6.46
2018-02-02T06:14:06.921Z,6.58
2018-02-02T06:14:47.420Z,6.55
2018-02-02T06:15:28.013Z,6.61
2018-02-02T06:16:08.594Z,6.59
2018-02-02T06:16:49.072Z,6.58
2018-02-02T06:17:29.633Z,6.48
2018-02-02T06:18:10.180Z,6.48
2018-02-02T06:18:50.770Z,6.4
2018-02-02T06:19:31.273Z,6.52
2018-02-02T06:20:11.902Z,6.41
2018-02-02T06:20:52.452Z,6.46
2018-02-02T06:21:32.982Z,6.49
2018-02-02T06:22:13.611Z,6.66
2018-02-02T06:22:54.056Z,6.64
2018-02-02T06:23:34.704Z,6.64
2018-02-02T06:24:15.153Z,6.61
2018-02-02T06:24:55.766Z,6.69
2018-02-02T06:25:36.457Z,6.64
2018-02-02T06:26:17.232Z,6.64
2018-02-02T06:26:58.084Z,6.69
2018-02-02T06:27:38.646Z,6.58
2018-02-02T06:28:19.179Z,6.66
2018-02-02T06:28:59.733Z,6.74
2018-02-02T06:29:40.373Z,6.91
2018-02-02T06:30:20.852Z,6.91
2018-02-02T06:31:03.788Z,7.12
2018-02-02T06:31:44.364Z,6.97
2018-02-02T06:32:24.974Z,7.05
2018-02-02T06:33:05.489Z,7.05
2018-02-02T06:33:45.999Z,7.03
2018-02-02T06:34:26.536Z,7.02
2018-02-02T06:35:07.064Z,6.97
2018-02-02T06:35:47.680Z,7.15
2018-02-02T06:36:28.182Z,7.03
2018-02-02T06:37:08.735Z,6.97
2018-02-02T06:37:49.192Z,7.02
2018-02-02T06:38:29.781Z,6.94
2018-02-02T06:39:10.346Z,7.06
2018-02-02T06:39:50.880Z,7.03
2018-02-02T06:40:31.401Z,7.1
2018-02-02T06:41:11.880Z,6.88
2018-02-02T06:41:52.486Z,6.98
2018-02-02T06:42:33.038Z,6.95
2018-02-02T06:43:13.498Z,7.06
2018-02-02T06:43:54.033Z,7.03
2018-02-02T06:44:34.586Z,7.07
2018-02-02T06:45:15.149Z,7.24
2018-02-02T06:45:55.679Z,7.17
2018-02-02T06:46:36.310Z,7.16
2018-02-02T06:47:16.775Z,7.3
2018-02-02T06:47:57.290Z,7.27
2018-02-02T06:48:37.867Z,7.27
2018-02-02T06:49:18.700Z,7.2
2018-02-02T06:49:58.948Z,7.09
2018-02-02T06:50:39.629Z,7.03
2018-02-02T06:51:20.124Z,7.15
2018-02-02T06:52:00.637Z,6.89
2018-02-02T06:52:41.210Z,7.09
2018-02-02T06:53:21.747Z,7.07
2018-02-02T06:54:02.238Z,6.97
2018-02-02T06:54:42.812Z,6.91
2018-02-02T06:55:23.399Z,6.92
2018-02-02T06:56:03.851Z,6.98
2018-02-02T06:56:44.379Z,7.06
2018-02-02T06:57:24.984Z,7.02
2018-02-02T06:58:05.918Z,7.09
2018-02-02T06:58:46.294Z,7.17
2018-02-02T06:59:26.956Z,7.21
2018-02-02T07:00:07.385Z,7.23
2018-02-02T07:00:47.899Z,7.25
2018-02-02T07:01:28.415Z,7.3
2018-02-02T07:02:09.022Z,7.31
2018-02-02T07:02:49.566Z,7.3
2018-02-02T07:03:30.077Z,7.17
2018-02-02T07:04:10.694Z,7.07
2018-02-02T07:04:51.169Z,7.09
2018-02-02T07:05:31.765Z,7.42
2018-02-02T07:06:12.307Z,8.1
2018-02-02T07:06:53.411Z,8.2
2018-02-02T07:07:33.837Z,8.29
2018-02-02T07:08:14.377Z,7.72
2018-02-02T07:08:54.955Z,8.25
2018-02-02T07:09:35.517Z,7.86
2018-02-02T07:10:16.035Z,7.61
2018-02-02T07:10:56.586Z,7.74
2018-02-02T07:11:37.161Z,8.29
2018-02-02T07:12:17.674Z,7.9
2018-02-02T07:12:58.227Z,7.61
2018-02-02T07:13:38.822Z,7.35
2018-02-02T07:14:19.370Z,7.25
2018-02-02T07:14:59.951Z,7.17
2018-02-02T07:15:40.536Z,7.34
2018-02-02T07:16:21.039Z,7.27
2018-02-02T07:17:01.574Z,7.61
2018-02-02T07:17:42.153Z,8.01
2018-02-02T07:18:22.726Z,8.29
2018-02-02T07:19:03.357Z,8.07
2018-02-02T07:19:43.901Z,8.29
2018-02-02T07:20:24.440Z,8.36
2018-02-02T07:21:05.000Z,8.5
2018-02-02T07:21:45.542Z,8.83
2018-02-02T07:22:26.046Z,8.84
2018-02-02T07:23:06.814Z,9.04
2018-02-02T07:23:47.361Z,9.08
2018-02-02T07:24:27.911Z,8.96
2018-02-02T07:25:08.548Z,8.84
2018-02-02T07:25:49.051Z,8.37
2018-02-02T07:26:29.632Z,8.08
2018-02-02T07:27:10.150Z,7.9
2018-02-02T07:27:50.660Z,7.83
2018-02-02T07:28:31.260Z,7.83
2018-02-02T07:29:11.770Z,7.92
2018-02-02T07:29:52.320Z,7.85
2018-02-02T07:30:32.814Z,7.87
2018-02-02T07:31:13.357Z,7.82
2018-02-02T07:31:53.891Z,7.97
2018-02-02T07:32:34.393Z,7.89
2018-02-02T07:33:15.008Z,7.68
2018-02-02T07:33:55.508Z,8.1
2018-02-02T07:34:36.033Z,8.11
2018-02-02T07:35:16.532Z,7.89
2018-02-02T07:35:57.090Z,7.98
2018-02-02T07:36:37.647Z,8.05
2018-02-02T07:37:18.258Z,7.98
2018-02-02T07:37:58.779Z,8.07
2018-02-02T07:38:39.386Z,8.11
2018-02-02T07:39:19.926Z,8.01
2018-02-02T07:40:00.647Z,7.93
2018-02-02T07:40:41.085Z,7.93
2018-02-02T07:41:21.665Z,8.08
2018-02-02T07:42:02.200Z,8.05
2018-02-02T07:42:42.786Z,7.98
2018-02-02T07:43:23.312Z,8.07
2018-02-02T07:44:03.863Z,7.98
2018-02-02T07:44:44.497Z,8.02
2018-02-02T07:45:24.989Z,8.01
2018-02-02T07:46:05.541Z,7.98
2018-02-02T07:46:46.117Z,7.87
2018-02-02T07:47:26.667Z,7.89
2018-02-02T07:48:07.279Z,8.02
2018-02-02T07:48:47.824Z,7.98
2018-02-02T07:49:28.357Z,8.1
2018-02-02T07:50:08.897Z,8.01
2018-02-02T07:50:49.461Z,7.93
2018-02-02T07:51:29.985Z,7.83
2018-02-02T07:52:10.480Z,7.8
2018-02-02T07:52:51.030Z,7.83
2018-02-02T07:53:31.590Z,7.95
2018-02-02T07:54:12.156Z,7.61
2018-02-02T07:54:52.734Z,7.64
2018-02-02T07:55:33.253Z,7.72
2018-02-02T07:56:13.721Z,7.92
2018-02-02T07:56:54.269Z,7.77
2018-02-02T07:57:34.820Z,7.8
2018-02-02T07:58:15.346Z,7.82
2018-02-02T07:58:55.884Z,7.67
2018-02-02T07:59:36.483Z,7.52
2018-02-02T08:00:17.010Z,7.46
2018-02-02T08:00:57.471Z,7.52
2018-02-02T08:01:38.004Z,7.85
2018-02-02T08:02:18.545Z,8.7
2018-02-02T08:02:59.115Z,9.39
2018-02-02T08:03:39.679Z,9.01
2018-02-02T08:04:20.217Z,9.11
2018-02-02T08:05:00.739Z,9.08
2018-02-02T08:05:41.229Z,9.5
2018-02-02T08:06:21.814Z,8.84
2018-02-02T08:07:02.329Z,9.33
2018-02-02T08:07:42.862Z,9.5
2018-02-02T08:08:23.631Z,9.66
2018-02-02T08:09:04.139Z,9.69
2018-02-02T08:09:44.688Z,9.35
2018-02-02T08:10:25.275Z,8.84
2018-02-02T08:11:05.859Z,8.56
2018-02-02T08:11:46.403Z,8.23
2018-02-02T08:12:27.057Z,8.23
2018-02-02T08:13:07.511Z,8.18
2018-02-02T08:13:48.048Z,8.3
2018-02-02T08:14:28.643Z,8.25
2018-02-02T08:15:09.189Z,8.4
2018-02-02T08:15:49.749Z,8.56
2018-02-02T08:16:30.302Z,8.44
2018-02-02T08:17:10.826Z,9.21
2018-02-02T08:17:51.367Z,8.94
2018-02-02T08:18:31.890Z,8.84
2018-02-02T08:19:12.417Z,8.95
2018-02-02T08:19:52.928Z,9.1
2018-02-02T08:20:33.498Z,9.5
2018-02-02T08:21:13.990Z,9.29
2018-02-02T08:21:54.532Z,9.04
2018-02-02T08:22:35.122Z,9.51
2018-02-02T08:23:15.659Z,9.1
2018-02-02T08:23:56.178Z,8.66
2018-02-02T08:24:36.796Z,8.47
2018-02-02T08:25:17.381Z,8.38
2018-02-02T08:25:57.937Z,8.37
2018-02-02T08:26:38.507Z,8.11
2018-02-02T08:27:19.130Z,8.11
2018-02-02T08:27:59.830Z,8.07
2018-02-02T08:28:40.313Z,8.12
2018-02-02T08:29:20.816Z,8.12
2018-02-02T08:30:01.374Z,8.07
2018-02-02T08:30:41.853Z,8.1
2018-02-02T08:31:22.393Z,8.02
2018-02-02T08:32:03.074Z,8.12
2018-02-02T08:32:43.630Z,8.36
2018-02-02T08:33:24.177Z,8.29
2018-02-02T08:34:04.728Z,8.41
2018-02-02T08:34:45.283Z,8.53
2018-02-02T08:35:25.808Z,8.48
2018-02-02T08:36:06.378Z,8.43
2018-02-02T08:36:46.875Z,8.45
2018-02-02T08:37:27.470Z,8.59
2018-02-02T08:38:08.028Z,8.38
2018-02-02T08:38:48.513Z,8.41
2018-02-02T08:39:29.035Z,8.43
2018-02-02T08:40:09.588Z,8.34
2018-02-02T08:40:50.151Z,8.34
2018-02-02T08:41:30.719Z,8.83
2018-02-02T08:42:11.228Z,8.99
2018-02-02T08:42:51.772Z,8.94
2018-02-02T08:43:32.318Z,9.13
2018-02-02T08:44:12.791Z,8.91
2018-02-02T08:44:53.403Z,9.13
2018-02-02T08:45:33.889Z,9.26
2018-02-02T08:46:14.455Z,9.42
2018-02-02T08:46:55.017Z,9.38
2018-02-02T08:47:35.549Z,9.1
2018-02-02T08:48:16.078Z,9.13
2018-02-02T08:48:56.605Z,9.01
2018-02-02T08:49:37.137Z,8.99
2018-02-02T08:50:17.714Z,8.8
2018-02-02T08:50:58.181Z,8.83
2018-02-02T08:51:38.705Z,8.59
2018-02-02T08:52:19.284Z,8.56
2018-02-02T08:52:59.791Z,8.55
2018-02-02T08:53:40.342Z,8.36
2018-02-02T08:54:20.863Z,8.25
2018-02-02T08:55:01.373Z,8.26
2018-02-02T08:55:41.926Z,8.19
2018-02-02T08:56:22.492Z,8.12
2018-02-02T08:57:03.133Z,8.41
2018-02-02T08:57:43.637Z,8.53
2018-02-02T08:58:24.196Z,8.81
2018-02-02T08:59:04.752Z,9.38
2018-02-02T08:59:45.326Z,9.83
2018-02-02T09:00:25.887Z,9.83
2018-02-02T09:01:06.445Z,9.5
2018-02-02T09:01:46.944Z,9.38
2018-02-02T09:02:27.508Z,9.35